Canby, Oregon
Current Conditions -  °F | °C
As of 5:53 PM on Thursday 20 Nov 2014 (Local Time) from KUAO Reporting Station
Haze Haze  
Wind Chill: 48°   Ceiling: 6000
Heat Index: 48°   Visibility: 6mi
Dew Point: 45°   Wind: 0mph
Humidity: 89%   Direction: NA
Pressure: 29.99"   Gusts: NA
Location:  45.26°N, 122.69°W
Report Text: KUAO 210153Z AUTO 00000KT 6SM BR OVC060 09/07 A2999 RMK AO2 SLP154 T00890072
Loading
Personal Weather Stations






























Interactive Weather Map New forecast layout! Learn more

10-Day Weather Forecast

Advertisements
Track Severe Weather on mobile